sensor_id;sensor_type;location;lat;lon;timestamp;P1;durP1;ratioP1;P2;durP2;ratioP2
26977;SDS011;56314;48.088;11.642;2023-11-19T00:00:18;2.17;;;1.48;;
26977;SDS011;56314;48.088;11.642;2023-11-19T00:02:44;3.10;;;1.48;;
26977;SDS011;56314;48.088;11.642;2023-11-19T00:05:09;1.38;;;1.27;;
26977;SDS011;56314;48.088;11.642;2023-11-19T00:07:39;2.53;;;1.30;;
26977;SDS011;56314;48.088;11.642;2023-11-19T00:10:08;3.28;;;1.40;;
26977;SDS011;56314;48.088;11.642;2023-11-19T00:12:35;2.03;;;1.65;;
26977;SDS011;56314;48.088;11.642;2023-11-19T00:15:01;1.92;;;1.60;;
26977;SDS011;56314;48.088;11.642;2023-11-19T00:17:27;2.47;;;1.60;;
26977;SDS011;56314;48.088;11.642;2023-11-19T00:19:52;3.58;;;2.05;;
26977;SDS011;56314;48.088;11.642;2023-11-19T00:22:17;3.17;;;2.03;;
26977;SDS011;56314;48.088;11.642;2023-11-19T00:24:43;2.08;;;1.75;;
26977;SDS011;56314;48.088;11.642;2023-11-19T00:27:08;3.85;;;2.25;;
26977;SDS011;56314;48.088;11.642;2023-11-19T00:29:33;3.65;;;1.92;;
26977;SDS011;56314;48.088;11.642;2023-11-19T00:31:59;1.85;;;1.70;;
26977;SDS011;56314;48.088;11.642;2023-11-19T00:34:24;1.70;;;1.60;;
26977;SDS011;56314;48.088;11.642;2023-11-19T00:36:49;3.88;;;1.52;;
26977;SDS011;56314;48.088;11.642;2023-11-19T00:39:15;2.80;;;2.10;;
26977;SDS011;56314;48.088;11.642;2023-11-19T00:41:40;2.08;;;1.83;;
26977;SDS011;56314;48.088;11.642;2023-11-19T00:44:06;3.20;;;2.00;;
26977;SDS011;56314;48.088;11.642;2023-11-19T00:46:31;2.13;;;1.92;;
26977;SDS011;56314;48.088;11.642;2023-11-19T00:48:57;2.80;;;1.88;;
26977;SDS011;56314;48.088;11.642;2023-11-19T00:51:24;2.00;;;1.60;;
26977;SDS011;56314;48.088;11.642;2023-11-19T00:53:51;2.55;;;1.63;;
26977;SDS011;56314;48.088;11.642;2023-11-19T00:56:18;2.33;;;1.80;;
26977;SDS011;56314;48.088;11.642;2023-11-19T00:58:44;2.92;;;1.42;;
26977;SDS011;56314;48.088;11.642;2023-11-19T01:01:13;2.13;;;1.92;;
26977;SDS011;56314;48.088;11.642;2023-11-19T01:03:38;5.28;;;1.67;;
26977;SDS011;56314;48.088;11.642;2023-11-19T01:06:04;2.78;;;1.95;;
26977;SDS011;56314;48.088;11.642;2023-11-19T01:08:30;1.90;;;1.40;;
26977;SDS011;56314;48.088;11.642;2023-11-19T01:10:55;1.92;;;1.20;;
26977;SDS011;56314;48.088;11.642;2023-11-19T01:13:20;2.70;;;1.40;;
26977;SDS011;56314;48.088;11.642;2023-11-19T01:15:46;1.80;;;1.50;;
26977;SDS011;56314;48.088;11.642;2023-11-19T01:18:12;1.70;;;1.58;;
26977;SDS011;56314;48.088;11.642;2023-11-19T01:20:38;2.03;;;1.70;;
26977;SDS011;56314;48.088;11.642;2023-11-19T01:23:03;4.40;;;1.75;;
26977;SDS011;56314;48.088;11.642;2023-11-19T01:25:29;1.65;;;1.40;;
26977;SDS011;56314;48.088;11.642;2023-11-19T01:27:55;1.80;;;1.63;;
26977;SDS011;56314;48.088;11.642;2023-11-19T01:30:23;4.55;;;1.60;;
26977;SDS011;56314;48.088;11.642;2023-11-19T01:32:49;2.03;;;1.63;;
26977;SDS011;56314;48.088;11.642;2023-11-19T01:35:14;2.17;;;1.52;;
26977;SDS011;56314;48.088;11.642;2023-11-19T01:37:39;2.30;;;1.75;;
26977;SDS011;56314;48.088;11.642;2023-11-19T01:40:05;4.25;;;2.20;;
26977;SDS011;56314;48.088;11.642;2023-11-19T01:42:39;2.08;;;1.80;;
26977;SDS011;56314;48.088;11.642;2023-11-19T01:45:06;1.38;;;1.20;;
26977;SDS011;56314;48.088;11.642;2023-11-19T01:47:33;2.08;;;1.55;;
26977;SDS011;56314;48.088;11.642;2023-11-19T01:49:59;2.63;;;1.48;;
26977;SDS011;56314;48.088;11.642;2023-11-19T01:52:25;1.58;;;1.23;;
26977;SDS011;56314;48.088;11.642;2023-11-19T01:54:51;1.88;;;1.60;;
26977;SDS011;56314;48.088;11.642;2023-11-19T01:57:18;2.22;;;1.27;;
26977;SDS011;56314;48.088;11.642;2023-11-19T01:59:46;2.53;;;1.25;;
26977;SDS011;56314;48.088;11.642;2023-11-19T02:02:11;1.40;;;1.30;;
26977;SDS011;56314;48.088;11.642;2023-11-19T02:04:37;2.67;;;1.50;;
26977;SDS011;56314;48.088;11.642;2023-11-19T02:07:03;2.47;;;1.48;;
26977;SDS011;56314;48.088;11.642;2023-11-19T02:09:29;1.50;;;1.30;;
26977;SDS011;56314;48.088;11.642;2023-11-19T02:11:55;2.85;;;1.52;;
26977;SDS011;56314;48.088;11.642;2023-11-19T02:14:22;1.95;;;1.40;;
26977;SDS011;56314;48.088;11.642;2023-11-19T02:16:50;1.98;;;1.38;;
26977;SDS011;56314;48.088;11.642;2023-11-19T02:19:18;2.72;;;1.77;;
26977;SDS011;56314;48.088;11.642;2023-11-19T02:21:44;2.72;;;1.30;;
26977;SDS011;56314;48.088;11.642;2023-11-19T02:24:10;1.90;;;1.48;;
26977;SDS011;56314;48.088;11.642;2023-11-19T02:26:47;2.28;;;1.65;;
26977;SDS011;56314;48.088;11.642;2023-11-19T02:29:21;3.38;;;1.67;;
26977;SDS011;56314;48.088;11.642;2023-11-19T02:31:47;2.05;;;1.27;;
26977;SDS011;56314;48.088;11.642;2023-11-19T02:34:12;3.67;;;1.45;;
26977;SDS011;56314;48.088;11.642;2023-11-19T02:36:38;3.05;;;1.45;;
26977;SDS011;56314;48.088;11.642;2023-11-19T02:39:03;1.65;;;1.33;;
26977;SDS011;56314;48.088;11.642;2023-11-19T02:41:28;2.13;;;1.30;;
26977;SDS011;56314;48.088;11.642;2023-11-19T02:43:55;1.65;;;1.10;;
26977;SDS011;56314;48.088;11.642;2023-11-19T02:46:20;1.95;;;1.20;;
26977;SDS011;56314;48.088;11.642;2023-11-19T02:48:45;1.17;;;1.08;;
26977;SDS011;56314;48.088;11.642;2023-11-19T02:51:11;1.52;;;1.30;;
26977;SDS011;56314;48.088;11.642;2023-11-19T02:53:37;1.35;;;1.10;;
26977;SDS011;56314;48.088;11.642;2023-11-19T02:56:03;2.13;;;1.10;;
26977;SDS011;56314;48.088;11.642;2023-11-19T02:58:45;1.23;;;1.05;;
26977;SDS011;56314;48.088;11.642;2023-11-19T03:01:11;1.60;;;1.10;;
26977;SDS011;56314;48.088;11.642;2023-11-19T03:03:48;2.08;;;1.10;;
26977;SDS011;56314;48.088;11.642;2023-11-19T03:06:19;1.58;;;1.10;;
26977;SDS011;56314;48.088;11.642;2023-11-19T03:08:46;1.30;;;1.00;;
26977;SDS011;56314;48.088;11.642;2023-11-19T03:11:12;4.53;;;1.20;;
26977;SDS011;56314;48.088;11.642;2023-11-19T03:13:37;0.90;;;0.80;;
26977;SDS011;56314;48.088;11.642;2023-11-19T03:16:02;1.63;;;0.75;;
26977;SDS011;56314;48.088;11.642;2023-11-19T03:18:28;1.38;;;0.90;;
26977;SDS011;56314;48.088;11.642;2023-11-19T03:20:53;1.52;;;0.95;;
26977;SDS011;56314;48.088;11.642;2023-11-19T03:23:19;1.15;;;1.05;;
26977;SDS011;56314;48.088;11.642;2023-11-19T03:25:44;0.90;;;0.90;;
26977;SDS011;56314;48.088;11.642;2023-11-19T03:28:09;1.25;;;0.80;;
26977;SDS011;56314;48.088;11.642;2023-11-19T03:30:36;2.67;;;0.85;;
26977;SDS011;56314;48.088;11.642;2023-11-19T03:33:01;1.23;;;0.90;;
26977;SDS011;56314;48.088;11.642;2023-11-19T03:35:27;1.52;;;0.77;;
26977;SDS011;56314;48.088;11.642;2023-11-19T03:37:53;1.83;;;0.85;;
26977;SDS011;56314;48.088;11.642;2023-11-19T03:40:19;1.73;;;0.82;;
26977;SDS011;56314;48.088;11.642;2023-11-19T03:42:44;1.40;;;0.88;;
26977;SDS011;56314;48.088;11.642;2023-11-19T03:45:10;1.63;;;0.75;;
26977;SDS011;56314;48.088;11.642;2023-11-19T03:47:37;0.80;;;0.80;;
26977;SDS011;56314;48.088;11.642;2023-11-19T03:50:02;5.28;;;1.02;;
26977;SDS011;56314;48.088;11.642;2023-11-19T03:52:29;1.25;;;0.80;;
26977;SDS011;56314;48.088;11.642;2023-11-19T03:54:54;2.53;;;0.75;;
26977;SDS011;56314;48.088;11.642;2023-11-19T03:57:21;0.98;;;0.93;;
26977;SDS011;56314;48.088;11.642;2023-11-19T03:59:47;2.47;;;1.25;;
26977;SDS011;56314;48.088;11.642;2023-11-19T04:02:12;1.88;;;0.80;;
26977;SDS011;56314;48.088;11.642;2023-11-19T04:04:38;2.17;;;0.85;;
26977;SDS011;56314;48.088;11.642;2023-11-19T04:07:04;1.42;;;1.00;;
26977;SDS011;56314;48.088;11.642;2023-11-19T04:09:29;0.82;;;0.82;;
26977;SDS011;56314;48.088;11.642;2023-11-19T04:11:55;3.40;;;1.00;;
26977;SDS011;56314;48.088;11.642;2023-11-19T04:14:21;2.35;;;1.13;;
26977;SDS011;56314;48.088;11.642;2023-11-19T04:16:46;0.75;;;0.75;;
26977;SDS011;56314;48.088;11.642;2023-11-19T04:19:12;0.80;;;0.80;;
26977;SDS011;56314;48.088;11.642;2023-11-19T04:21:40;0.70;;;0.70;;
26977;SDS011;56314;48.088;11.642;2023-11-19T04:24:09;2.20;;;1.10;;
26977;SDS011;56314;48.088;11.642;2023-11-19T04:26:44;2.50;;;0.90;;
26977;SDS011;56314;48.088;11.642;2023-11-19T04:29:13;2.55;;;0.70;;
26977;SDS011;56314;48.088;11.642;2023-11-19T04:31:40;1.23;;;0.70;;
26977;SDS011;56314;48.088;11.642;2023-11-19T04:34:06;1.67;;;0.90;;
26977;SDS011;56314;48.088;11.642;2023-11-19T04:36:31;0.95;;;0.70;;
26977;SDS011;56314;48.088;11.642;2023-11-19T04:38:58;3.92;;;0.77;;
26977;SDS011;56314;48.088;11.642;2023-11-19T04:41:24;0.88;;;0.88;;
26977;SDS011;56314;48.088;11.642;2023-11-19T04:43:50;1.40;;;1.00;;
26977;SDS011;56314;48.088;11.642;2023-11-19T04:46:15;1.45;;;0.73;;
26977;SDS011;56314;48.088;11.642;2023-11-19T04:48:41;0.77;;;0.60;;
26977;SDS011;56314;48.088;11.642;2023-11-19T04:51:07;2.70;;;0.90;;
26977;SDS011;56314;48.088;11.642;2023-11-19T04:53:34;4.43;;;0.82;;
26977;SDS011;56314;48.088;11.642;2023-11-19T04:56:00;1.90;;;0.90;;
26977;SDS011;56314;48.088;11.642;2023-11-19T04:58:25;0.50;;;0.50;;
26977;SDS011;56314;48.088;11.642;2023-11-19T05:00:50;0.70;;;0.70;;
26977;SDS011;56314;48.088;11.642;2023-11-19T05:03:16;0.77;;;0.55;;
26977;SDS011;56314;48.088;11.642;2023-11-19T05:05:41;1.67;;;0.60;;
26977;SDS011;56314;48.088;11.642;2023-11-19T05:08:06;0.52;;;0.52;;
26977;SDS011;56314;48.088;11.642;2023-11-19T05:10:32;1.00;;;0.68;;
26977;SDS011;56314;48.088;11.642;2023-11-19T05:12:57;1.27;;;0.60;;
26977;SDS011;56314;48.088;11.642;2023-11-19T05:15:22;1.90;;;0.60;;
26977;SDS011;56314;48.088;11.642;2023-11-19T05:17:49;1.13;;;0.60;;
26977;SDS011;56314;48.088;11.642;2023-11-19T05:20:14;0.60;;;0.60;;
26977;SDS011;56314;48.088;11.642;2023-11-19T05:22:40;2.53;;;0.80;;
26977;SDS011;56314;48.088;11.642;2023-11-19T05:25:06;0.60;;;0.60;;
26977;SDS011;56314;48.088;11.642;2023-11-19T05:27:33;0.80;;;0.77;;
26977;SDS011;56314;48.088;11.642;2023-11-19T05:29:59;1.10;;;0.75;;
26977;SDS011;56314;48.088;11.642;2023-11-19T05:32:25;0.68;;;0.68;;
26977;SDS011;56314;48.088;11.642;2023-11-19T05:34:50;0.65;;;0.65;;
26977;SDS011;56314;48.088;11.642;2023-11-19T05:37:16;1.65;;;0.73;;
26977;SDS011;56314;48.088;11.642;2023-11-19T05:39:41;0.80;;;0.70;;
26977;SDS011;56314;48.088;11.642;2023-11-19T05:42:07;0.70;;;0.70;;
26977;SDS011;56314;48.088;11.642;2023-11-19T05:44:32;0.70;;;0.70;;
26977;SDS011;56314;48.088;11.642;2023-11-19T05:46:57;1.30;;;0.60;;
26977;SDS011;56314;48.088;11.642;2023-11-19T05:49:23;1.70;;;0.90;;
26977;SDS011;56314;48.088;11.642;2023-11-19T05:51:48;1.02;;;0.70;;
26977;SDS011;56314;48.088;11.642;2023-11-19T05:54:13;0.82;;;0.73;;
26977;SDS011;56314;48.088;11.642;2023-11-19T05:56:39;0.70;;;0.60;;
26977;SDS011;56314;48.088;11.642;2023-11-19T05:59:04;0.90;;;0.65;;
26977;SDS011;56314;48.088;11.642;2023-11-19T06:01:33;0.70;;;0.70;;
26977;SDS011;56314;48.088;11.642;2023-11-19T06:04:01;0.60;;;0.60;;
26977;SDS011;56314;48.088;11.642;2023-11-19T06:06:27;0.68;;;0.60;;
26977;SDS011;56314;48.088;11.642;2023-11-19T06:08:53;0.60;;;0.60;;
26977;SDS011;56314;48.088;11.642;2023-11-19T06:11:20;0.73;;;0.73;;
26977;SDS011;56314;48.088;11.642;2023-11-19T06:13:46;1.00;;;0.60;;
26977;SDS011;56314;48.088;11.642;2023-11-19T06:16:13;0.95;;;0.70;;
26977;SDS011;56314;48.088;11.642;2023-11-19T06:18:38;1.70;;;0.60;;
26977;SDS011;56314;48.088;11.642;2023-11-19T06:21:04;0.40;;;0.40;;
26977;SDS011;56314;48.088;11.642;2023-11-19T06:23:29;0.57;;;0.50;;
26977;SDS011;56314;48.088;11.642;2023-11-19T06:25:54;0.32;;;0.32;;
26977;SDS011;56314;48.088;11.642;2023-11-19T06:28:20;0.60;;;0.60;;
26977;SDS011;56314;48.088;11.642;2023-11-19T06:30:45;1.63;;;0.60;;
26977;SDS011;56314;48.088;11.642;2023-11-19T06:33:13;0.60;;;0.52;;
26977;SDS011;56314;48.088;11.642;2023-11-19T06:35:39;3.42;;;0.75;;
26977;SDS011;56314;48.088;11.642;2023-11-19T06:38:05;0.80;;;0.43;;
26977;SDS011;56314;48.088;11.642;2023-11-19T06:40:31;0.95;;;0.43;;
26977;SDS011;56314;48.088;11.642;2023-11-19T06:42:57;0.30;;;0.30;;
26977;SDS011;56314;48.088;11.642;2023-11-19T06:45:22;0.95;;;0.30;;
26977;SDS011;56314;48.088;11.642;2023-11-19T06:47:47;1.08;;;0.47;;
26977;SDS011;56314;48.088;11.642;2023-11-19T06:50:13;0.63;;;0.55;;
26977;SDS011;56314;48.088;11.642;2023-11-19T06:52:40;1.85;;;0.45;;
26977;SDS011;56314;48.088;11.642;2023-11-19T06:55:05;0.50;;;0.30;;
26977;SDS011;56314;48.088;11.642;2023-11-19T06:57:31;0.35;;;0.35;;
26977;SDS011;56314;48.088;11.642;2023-11-19T06:59:57;0.45;;;0.45;;
26977;SDS011;56314;48.088;11.642;2023-11-19T07:02:23;0.98;;;0.40;;
26977;SDS011;56314;48.088;11.642;2023-11-19T07:04:49;0.28;;;0.25;;
26977;SDS011;56314;48.088;11.642;2023-11-19T07:07:14;0.30;;;0.30;;
26977;SDS011;56314;48.088;11.642;2023-11-19T07:09:40;0.43;;;0.30;;
26977;SDS011;56314;48.088;11.642;2023-11-19T07:12:05;0.40;;;0.40;;
26977;SDS011;56314;48.088;11.642;2023-11-19T07:14:31;0.40;;;0.40;;
26977;SDS011;56314;48.088;11.642;2023-11-19T07:16:57;0.45;;;0.40;;
26977;SDS011;56314;48.088;11.642;2023-11-19T07:19:22;0.85;;;0.70;;
26977;SDS011;56314;48.088;11.642;2023-11-19T07:21:47;0.70;;;0.70;;
26977;SDS011;56314;48.088;11.642;2023-11-19T07:24:13;0.22;;;0.22;;
26977;SDS011;56314;48.088;11.642;2023-11-19T07:26:42;0.40;;;0.40;;
26977;SDS011;56314;48.088;11.642;2023-11-19T07:29:12;0.30;;;0.30;;
26977;SDS011;56314;48.088;11.642;2023-11-19T07:31:37;0.20;;;0.20;;
26977;SDS011;56314;48.088;11.642;2023-11-19T07:34:03;1.88;;;0.30;;
26977;SDS011;56314;48.088;11.642;2023-11-19T07:36:30;0.22;;;0.22;;
26977;SDS011;56314;48.088;11.642;2023-11-19T07:38:56;0.40;;;0.40;;
26977;SDS011;56314;48.088;11.642;2023-11-19T07:41:22;0.45;;;0.40;;
26977;SDS011;56314;48.088;11.642;2023-11-19T07:43:48;0.65;;;0.40;;
26977;SDS011;56314;48.088;11.642;2023-11-19T07:46:14;1.15;;;0.90;;
26977;SDS011;56314;48.088;11.642;2023-11-19T07:48:40;1.08;;;0.70;;
26977;SDS011;56314;48.088;11.642;2023-11-19T07:51:06;0.63;;;0.50;;
26977;SDS011;56314;48.088;11.642;2023-11-19T07:53:31;0.60;;;0.60;;
26977;SDS011;56314;48.088;11.642;2023-11-19T07:55:58;1.70;;;0.50;;
26977;SDS011;56314;48.088;11.642;2023-11-19T07:58:24;0.50;;;0.38;;
26977;SDS011;56314;48.088;11.642;2023-11-19T08:00:50;0.30;;;0.30;;
26977;SDS011;56314;48.088;11.642;2023-11-19T08:03:17;0.55;;;0.45;;
26977;SDS011;56314;48.088;11.642;2023-11-19T08:05:43;0.30;;;0.30;;
26977;SDS011;56314;48.088;11.642;2023-11-19T08:08:09;0.40;;;0.30;;
26977;SDS011;56314;48.088;11.642;2023-11-19T08:10:35;0.30;;;0.30;;
26977;SDS011;56314;48.088;11.642;2023-11-19T08:13:00;0.43;;;0.43;;
26977;SDS011;56314;48.088;11.642;2023-11-19T08:15:26;0.30;;;0.30;;
26977;SDS011;56314;48.088;11.642;2023-11-19T08:17:52;0.50;;;0.30;;
26977;SDS011;56314;48.088;11.642;2023-11-19T08:20:18;0.20;;;0.20;;
26977;SDS011;56314;48.088;11.642;2023-11-19T08:22:44;0.30;;;0.30;;
26977;SDS011;56314;48.088;11.642;2023-11-19T08:25:09;0.30;;;0.30;;
26977;SDS011;56314;48.088;11.642;2023-11-19T08:27:34;0.90;;;0.30;;
26977;SDS011;56314;48.088;11.642;2023-11-19T08:30:00;0.40;;;0.40;;
26977;SDS011;56314;48.088;11.642;2023-11-19T08:32:25;0.20;;;0.20;;
26977;SDS011;56314;48.088;11.642;2023-11-19T08:34:52;0.30;;;0.30;;
26977;SDS011;56314;48.088;11.642;2023-11-19T08:37:17;0.50;;;0.50;;
26977;SDS011;56314;48.088;11.642;2023-11-19T08:39:47;0.28;;;0.28;;
26977;SDS011;56314;48.088;11.642;2023-11-19T08:42:13;0.30;;;0.30;;
26977;SDS011;56314;48.088;11.642;2023-11-19T08:44:39;0.95;;;0.35;;
26977;SDS011;56314;48.088;11.642;2023-11-19T08:47:08;0.30;;;0.30;;
26977;SDS011;56314;48.088;11.642;2023-11-19T08:49:34;0.30;;;0.30;;
26977;SDS011;56314;48.088;11.642;2023-11-19T08:52:00;0.57;;;0.40;;
26977;SDS011;56314;48.088;11.642;2023-11-19T08:54:25;0.40;;;0.40;;
26977;SDS011;56314;48.088;11.642;2023-11-19T08:56:50;0.30;;;0.30;;
26977;SDS011;56314;48.088;11.642;2023-11-19T08:59:16;1.75;;;0.40;;
26977;SDS011;56314;48.088;11.642;2023-11-19T09:01:41;0.35;;;0.30;;
26977;SDS011;56314;48.088;11.642;2023-11-19T09:04:07;0.85;;;0.73;;
26977;SDS011;56314;48.088;11.642;2023-11-19T09:06:32;0.68;;;0.30;;
26977;SDS011;56314;48.088;11.642;2023-11-19T09:08:58;1.27;;;0.25;;
26977;SDS011;56314;48.088;11.642;2023-11-19T09:11:27;0.30;;;0.30;;
26977;SDS011;56314;48.088;11.642;2023-11-19T09:13:53;0.45;;;0.40;;
26977;SDS011;56314;48.088;11.642;2023-11-19T09:16:18;2.85;;;0.40;;
26977;SDS011;56314;48.088;11.642;2023-11-19T09:18:44;0.30;;;0.30;;
26977;SDS011;56314;48.088;11.642;2023-11-19T09:21:12;0.75;;;0.40;;
26977;SDS011;56314;48.088;11.642;2023-11-19T09:23:38;0.60;;;0.40;;
26977;SDS011;56314;48.088;11.642;2023-11-19T09:26:04;0.90;;;0.45;;
26977;SDS011;56314;48.088;11.642;2023-11-19T09:28:31;0.52;;;0.43;;
26977;SDS011;56314;48.088;11.642;2023-11-19T09:30:57;0.93;;;0.40;;
26977;SDS011;56314;48.088;11.642;2023-11-19T09:33:23;0.63;;;0.52;;
26977;SDS011;56314;48.088;11.642;2023-11-19T09:35:49;0.85;;;0.57;;
26977;SDS011;56314;48.088;11.642;2023-11-19T09:38:15;0.85;;;0.40;;
26977;SDS011;56314;48.088;11.642;2023-11-19T09:40:41;0.40;;;0.40;;
26977;SDS011;56314;48.088;11.642;2023-11-19T09:43:07;0.40;;;0.40;;
26977;SDS011;56314;48.088;11.642;2023-11-19T09:45:36;0.90;;;0.30;;
26977;SDS011;56314;48.088;11.642;2023-11-19T09:48:13;0.47;;;0.43;;
26977;SDS011;56314;48.088;11.642;2023-11-19T09:50:41;0.57;;;0.43;;
26977;SDS011;56314;48.088;11.642;2023-11-19T09:53:07;0.60;;;0.60;;
26977;SDS011;56314;48.088;11.642;2023-11-19T09:55:32;1.52;;;0.60;;
26977;SDS011;56314;48.088;11.642;2023-11-19T09:57:58;1.30;;;0.70;;
26977;SDS011;56314;48.088;11.642;2023-11-19T10:00:26;0.50;;;0.43;;
26977;SDS011;56314;48.088;11.642;2023-11-19T10:02:52;0.25;;;0.25;;
26977;SDS011;56314;48.088;11.642;2023-11-19T10:05:19;0.32;;;0.32;;
26977;SDS011;56314;48.088;11.642;2023-11-19T10:07:45;0.43;;;0.43;;
26977;SDS011;56314;48.088;11.642;2023-11-19T10:10:11;0.85;;;0.40;;
26977;SDS011;56314;48.088;11.642;2023-11-19T10:12:40;0.50;;;0.50;;
26977;SDS011;56314;48.088;11.642;2023-11-19T10:15:06;0.68;;;0.63;;
26977;SDS011;56314;48.088;11.642;2023-11-19T10:17:37;1.25;;;0.80;;
26977;SDS011;56314;48.088;11.642;2023-11-19T10:20:03;2.10;;;0.65;;
26977;SDS011;56314;48.088;11.642;2023-11-19T10:22:29;1.13;;;0.70;;
26977;SDS011;56314;48.088;11.642;2023-11-19T10:24:55;0.85;;;0.60;;
26977;SDS011;56314;48.088;11.642;2023-11-19T10:27:20;0.47;;;0.47;;
26977;SDS011;56314;48.088;11.642;2023-11-19T10:29:49;1.20;;;0.43;;
26977;SDS011;56314;48.088;11.642;2023-11-19T10:32:14;0.30;;;0.30;;
26977;SDS011;56314;48.088;11.642;2023-11-19T10:34:40;0.60;;;0.60;;
26977;SDS011;56314;48.088;11.642;2023-11-19T10:37:06;2.08;;;0.60;;
26977;SDS011;56314;48.088;11.642;2023-11-19T10:42:19;0.98;;;0.65;;
26977;SDS011;56314;48.088;11.642;2023-11-19T10:44:44;0.52;;;0.52;;
26977;SDS011;56314;48.088;11.642;2023-11-19T10:47:10;0.38;;;0.38;;
26977;SDS011;56314;48.088;11.642;2023-11-19T10:49:36;0.50;;;0.43;;
26977;SDS011;56314;48.088;11.642;2023-11-19T10:52:03;0.30;;;0.30;;
26977;SDS011;56314;48.088;11.642;2023-11-19T10:54:30;0.40;;;0.40;;
26977;SDS011;56314;48.088;11.642;2023-11-19T10:57:00;1.25;;;0.88;;
26977;SDS011;56314;48.088;11.642;2023-11-19T10:59:30;0.30;;;0.28;;
26977;SDS011;56314;48.088;11.642;2023-11-19T11:02:00;0.30;;;0.30;;
26977;SDS011;56314;48.088;11.642;2023-11-19T11:04:32;0.30;;;0.30;;
26977;SDS011;56314;48.088;11.642;2023-11-19T11:07:00;0.35;;;0.35;;
26977;SDS011;56314;48.088;11.642;2023-11-19T11:09:27;0.93;;;0.50;;
26977;SDS011;56314;48.088;11.642;2023-11-19T11:11:53;0.30;;;0.30;;
26977;SDS011;56314;48.088;11.642;2023-11-19T11:14:22;0.40;;;0.40;;
26977;SDS011;56314;48.088;11.642;2023-11-19T11:16:49;0.55;;;0.40;;
26977;SDS011;56314;48.088;11.642;2023-11-19T11:19:15;0.30;;;0.30;;
26977;SDS011;56314;48.088;11.642;2023-11-19T11:21:42;0.25;;;0.25;;
26977;SDS011;56314;48.088;11.642;2023-11-19T11:32:54;0.43;;;0.38;;
26977;SDS011;56314;48.088;11.642;2023-11-19T11:35:47;0.30;;;0.30;;
26977;SDS011;56314;48.088;11.642;2023-11-19T11:38:23;0.30;;;0.30;;
26977;SDS011;56314;48.088;11.642;2023-11-19T11:41:35;0.40;;;0.35;;
26977;SDS011;56314;48.088;11.642;2023-11-19T11:48:57;2.00;;;0.40;;
26977;SDS011;56314;48.088;11.642;2023-11-19T11:54:09;1.08;;;0.60;;
26977;SDS011;56314;48.088;11.642;2023-11-19T11:57:02;0.40;;;0.30;;
26977;SDS011;56314;48.088;11.642;2023-11-19T12:02:07;0.60;;;0.40;;
26977;SDS011;56314;48.088;11.642;2023-11-19T12:04:34;0.20;;;0.20;;
26977;SDS011;56314;48.088;11.642;2023-11-19T12:07:04;0.28;;;0.28;;
26977;SDS011;56314;48.088;11.642;2023-11-19T12:09:31;0.80;;;0.57;;
26977;SDS011;56314;48.088;11.642;2023-11-19T12:20:06;0.30;;;0.30;;
26977;SDS011;56314;48.088;11.642;2023-11-19T12:22:39;0.40;;;0.38;;
26977;SDS011;56314;48.088;11.642;2023-11-19T12:25:06;0.30;;;0.30;;
26977;SDS011;56314;48.088;11.642;2023-11-19T12:27:34;0.47;;;0.43;;
26977;SDS011;56314;48.088;11.642;2023-11-19T12:30:00;0.20;;;0.20;;
26977;SDS011;56314;48.088;11.642;2023-11-19T12:32:26;0.28;;;0.28;;
26977;SDS011;56314;48.088;11.642;2023-11-19T12:34:51;0.30;;;0.30;;
26977;SDS011;56314;48.088;11.642;2023-11-19T12:37:16;0.73;;;0.25;;
26977;SDS011;56314;48.088;11.642;2023-11-19T12:39:42;0.40;;;0.40;;
26977;SDS011;56314;48.088;11.642;2023-11-19T12:42:08;0.65;;;0.40;;
26977;SDS011;56314;48.088;11.642;2023-11-19T12:44:33;0.55;;;0.30;;
26977;SDS011;56314;48.088;11.642;2023-11-19T12:49:32;0.43;;;0.30;;
26977;SDS011;56314;48.088;11.642;2023-11-19T12:51:58;0.32;;;0.32;;
26977;SDS011;56314;48.088;11.642;2023-11-19T12:54:34;1.65;;;0.30;;
26977;SDS011;56314;48.088;11.642;2023-11-19T12:57:00;0.40;;;0.40;;
26977;SDS011;56314;48.088;11.642;2023-11-19T12:59:26;0.50;;;0.40;;
26977;SDS011;56314;48.088;11.642;2023-11-19T13:01:55;0.40;;;0.40;;
26977;SDS011;56314;48.088;11.642;2023-11-19T13:04:22;1.00;;;0.40;;
26977;SDS011;56314;48.088;11.642;2023-11-19T13:06:49;0.28;;;0.28;;
26977;SDS011;56314;48.088;11.642;2023-11-19T13:09:48;1.67;;;0.55;;
26977;SDS011;56314;48.088;11.642;2023-11-19T13:12:13;1.95;;;0.82;;
26977;SDS011;56314;48.088;11.642;2023-11-19T13:14:40;2.40;;;0.50;;
26977;SDS011;56314;48.088;11.642;2023-11-19T13:17:07;0.90;;;0.50;;
26977;SDS011;56314;48.088;11.642;2023-11-19T13:19:33;2.42;;;0.47;;
26977;SDS011;56314;48.088;11.642;2023-11-19T13:21:59;1.05;;;0.47;;
26977;SDS011;56314;48.088;11.642;2023-11-19T13:24:25;0.40;;;0.40;;
26977;SDS011;56314;48.088;11.642;2023-11-19T13:26:50;0.30;;;0.30;;
26977;SDS011;56314;48.088;11.642;2023-11-19T13:29:15;0.45;;;0.45;;
26977;SDS011;56314;48.088;11.642;2023-11-19T13:31:41;2.92;;;0.50;;
26977;SDS011;56314;48.088;11.642;2023-11-19T13:34:06;0.38;;;0.38;;
26977;SDS011;56314;48.088;11.642;2023-11-19T13:36:33;0.38;;;0.38;;
26977;SDS011;56314;48.088;11.642;2023-11-19T13:38:59;0.73;;;0.50;;
26977;SDS011;56314;48.088;11.642;2023-11-19T13:41:28;1.95;;;0.50;;
26977;SDS011;56314;48.088;11.642;2023-11-19T13:43:53;0.40;;;0.40;;
26977;SDS011;56314;48.088;11.642;2023-11-19T13:46:20;0.60;;;0.30;;
26977;SDS011;56314;48.088;11.642;2023-11-19T13:48:45;0.80;;;0.43;;
26977;SDS011;56314;48.088;11.642;2023-11-19T13:51:10;0.57;;;0.57;;
26977;SDS011;56314;48.088;11.642;2023-11-19T13:53:36;0.35;;;0.35;;
26977;SDS011;56314;48.088;11.642;2023-11-19T13:56:02;0.40;;;0.40;;
26977;SDS011;56314;48.088;11.642;2023-11-19T13:58:28;0.30;;;0.30;;
26977;SDS011;56314;48.088;11.642;2023-11-19T14:00:53;0.60;;;0.52;;
26977;SDS011;56314;48.088;11.642;2023-11-19T14:03:18;1.48;;;0.47;;
26977;SDS011;56314;48.088;11.642;2023-11-19T14:05:44;1.13;;;0.60;;
26977;SDS011;56314;48.088;11.642;2023-11-19T14:08:10;0.38;;;0.38;;
26977;SDS011;56314;48.088;11.642;2023-11-19T14:10:38;0.28;;;0.28;;
26977;SDS011;56314;48.088;11.642;2023-11-19T14:13:07;0.40;;;0.40;;
26977;SDS011;56314;48.088;11.642;2023-11-19T14:15:33;1.10;;;0.47;;
26977;SDS011;56314;48.088;11.642;2023-11-19T14:17:58;0.52;;;0.52;;
26977;SDS011;56314;48.088;11.642;2023-11-19T14:20:24;0.70;;;0.55;;
26977;SDS011;56314;48.088;11.642;2023-11-19T14:22:50;0.65;;;0.50;;
26977;SDS011;56314;48.088;11.642;2023-11-19T14:25:17;0.80;;;0.50;;
26977;SDS011;56314;48.088;11.642;2023-11-19T14:27:43;1.55;;;0.57;;
26977;SDS011;56314;48.088;11.642;2023-11-19T14:30:10;0.52;;;0.50;;
26977;SDS011;56314;48.088;11.642;2023-11-19T14:32:37;0.40;;;0.40;;
26977;SDS011;56314;48.088;11.642;2023-11-19T14:35:03;1.40;;;0.40;;
26977;SDS011;56314;48.088;11.642;2023-11-19T14:37:29;0.40;;;0.40;;
26977;SDS011;56314;48.088;11.642;2023-11-19T14:39:58;0.80;;;0.55;;
26977;SDS011;56314;48.088;11.642;2023-11-19T14:42:25;0.40;;;0.40;;
26977;SDS011;56314;48.088;11.642;2023-11-19T14:44:51;0.45;;;0.45;;
26977;SDS011;56314;48.088;11.642;2023-11-19T14:47:18;0.77;;;0.50;;
26977;SDS011;56314;48.088;11.642;2023-11-19T14:49:43;1.02;;;0.50;;
26977;SDS011;56314;48.088;11.642;2023-11-19T14:52:09;0.68;;;0.52;;
26977;SDS011;56314;48.088;11.642;2023-11-19T14:54:35;0.75;;;0.52;;
26977;SDS011;56314;48.088;11.642;2023-11-19T14:57:00;0.40;;;0.40;;
26977;SDS011;56314;48.088;11.642;2023-11-19T14:59:26;2.92;;;0.40;;
26977;SDS011;56314;48.088;11.642;2023-11-19T15:01:51;0.40;;;0.40;;